createdAt,value
2022-11-24T00:01:31.646Z,100005.86
2022-11-24T00:04:05.413Z,100006.27
2022-11-24T00:06:36.021Z,100005.39
2022-11-24T00:09:05.407Z,100011.42
2022-11-24T00:11:35.943Z,100012.92
2022-11-24T00:14:06.336Z,100016.34
2022-11-24T00:16:36.950Z,100019.43
2022-11-24T00:19:12.746Z,100026.68
2022-11-24T00:21:44.024Z,100031.55
2022-11-24T00:24:12.219Z,100024.88
2022-11-24T00:26:40.591Z,100025.86
2022-11-24T00:29:11.485Z,100025.02
2022-11-24T00:31:41.403Z,100025.19
2022-11-24T00:34:14.531Z,100005.06
2022-11-24T00:36:43.429Z,100016.19
2022-11-24T00:39:14.319Z,100013.92
2022-11-24T00:41:43.735Z,100013.89
2022-11-24T00:44:12.792Z,100016.08
2022-11-24T00:46:42.157Z,100014.48
2022-11-24T00:49:11.983Z,100017.80
2022-11-24T00:51:40.076Z,100016.43
2022-11-24T00:54:08.396Z,100013.67
2022-11-24T00:56:38.210Z,100016.07
2022-11-24T00:59:06.235Z,100021.11
2022-11-24T01:01:34.369Z,100022.45
2022-11-24T01:04:02.856Z,100023.89
2022-11-24T01:06:32.983Z,100018.44
2022-11-24T01:09:01.627Z,100015.38
2022-11-24T01:12:01.430Z,100014.10
2022-11-24T01:14:30.871Z,100009.36
2022-11-24T01:17:01.169Z,100006.48
2022-11-24T01:19:29.237Z,100006.05
2022-11-24T01:21:57.193Z,100010.80
2022-11-24T01:24:26.052Z,100013.36
2022-11-24T01:26:54.167Z,100015.31
2022-11-24T01:29:22.352Z,100014.48
2022-11-24T01:31:50.272Z,100018.09
2022-11-24T01:34:18.476Z,100020.02
2022-11-24T01:36:46.495Z,100019.72
2022-11-24T01:39:14.872Z,100017.19
2022-11-24T01:41:43.322Z,100013.45
2022-11-24T01:44:42.480Z,100018.86
2022-11-24T01:47:37.267Z,100015.92
2022-11-24T01:50:06.173Z,100018.23
2022-11-24T01:52:53.013Z,100016.33
2022-11-24T01:55:25.917Z,100015.49
2022-11-24T01:58:00.699Z,100017.98
2022-11-24T02:00:28.873Z,100015.17
2022-11-24T02:02:59.869Z,100015.95
2022-11-24T02:05:39.236Z,100017.28
2022-11-24T02:08:17.505Z,100017.55
2022-11-24T02:10:46.444Z,100022.44
2022-11-24T02:13:15.881Z,100020.17
2022-11-24T02:15:43.964Z,100022.73
2022-11-24T02:18:12.001Z,100020.02
2022-11-24T02:20:40.123Z,100019.02
2022-11-24T02:23:17.350Z,100020.31
2022-11-24T02:26:19.546Z,100019.60
2022-11-24T02:28:47.895Z,100018.39
2022-11-24T02:31:15.917Z,100017.08
2022-11-24T02:33:44.576Z,100018.59
2022-11-24T02:36:12.574Z,100011.90
2022-11-24T02:38:40.728Z,100010.61
2022-11-24T02:41:17.950Z,100011.92
2022-11-24T02:43:56.039Z,100011.63
2022-11-24T02:46:24.486Z,100013.23
2022-11-24T02:48:54.939Z,100009.36
2022-11-24T02:51:23.518Z,100008.20
2022-11-24T02:53:51.536Z,100010.31
2022-11-24T02:56:19.569Z,100011.36
2022-11-24T02:58:47.768Z,100010.95
2022-11-24T03:01:15.958Z,100014.06
2022-11-24T03:03:44.586Z,100015.30
2022-11-24T03:06:12.516Z,100010.45
2022-11-24T03:08:40.823Z,100009.89
2022-11-24T03:11:09.013Z,100007.08
2022-11-24T03:13:37.132Z,100014.08
2022-11-24T03:16:10.445Z,100016.01
2022-11-24T03:18:39.383Z,100018.12
2022-11-24T03:21:07.727Z,100015.71
2022-11-24T03:23:36.187Z,100002.45
2022-11-24T03:26:12.277Z,100017.03
2022-11-24T03:28:41.310Z,100014.48
2022-11-24T03:31:10.233Z,100012.02
2022-11-24T03:33:38.981Z,100015.45
2022-11-24T03:36:08.436Z,100014.61
2022-11-24T03:38:36.574Z,100015.88
2022-11-24T03:41:04.600Z,100019.85
2022-11-24T03:43:33.036Z,100022.87
2022-11-24T03:46:01.307Z,100023.21
2022-11-24T03:48:29.407Z,100025.45
2022-11-24T03:50:59.866Z,100025.08
2022-11-24T03:53:30.374Z,100031.05
2022-11-24T03:55:58.597Z,100014.23
2022-11-24T03:58:27.106Z,100036.77
2022-11-24T04:00:56.541Z,100036.94
2022-11-24T04:03:24.923Z,100038.21
2022-11-24T04:05:53.383Z,100038.03
2022-11-24T04:08:22.385Z,100040.02
2022-11-24T04:10:52.507Z,100040.29
2022-11-24T04:13:24.016Z,100033.36
2022-11-24T04:15:53.698Z,100035.48
2022-11-24T04:18:22.181Z,100035.13
2022-11-24T04:20:51.961Z,100035.71
2022-11-24T04:23:20.069Z,100031.80
2022-11-24T04:25:48.927Z,100028.03
2022-11-24T04:28:17.161Z,100031.05
2022-11-24T04:30:45.324Z,100025.46
2022-11-24T04:33:13.549Z,100028.40
2022-11-24T04:35:41.606Z,100037.60
2022-11-24T04:38:09.609Z,100042.05
2022-11-24T04:40:38.859Z,100044.23
2022-11-24T04:43:07.154Z,100047.19
2022-11-24T04:45:35.824Z,100049.84
2022-11-24T04:48:04.925Z,100052.69
2022-11-24T04:50:33.026Z,100061.27
2022-11-24T04:53:01.049Z,100066.12
2022-11-24T04:55:29.382Z,100065.37
2022-11-24T04:57:57.525Z,100060.38
2022-11-24T05:00:25.473Z,100062.08
2022-11-24T05:02:53.442Z,100064.01
2022-11-24T05:05:21.760Z,100063.20
2022-11-24T05:07:49.850Z,100065.20
2022-11-24T05:10:36.109Z,100065.92
2022-11-24T05:13:06.951Z,100067.90
2022-11-24T05:15:36.957Z,100069.31
2022-11-24T05:18:07.083Z,100074.06
2022-11-24T05:20:35.644Z,100078.02
2022-11-24T05:23:08.485Z,100080.66
2022-11-24T05:25:36.929Z,100077.30
2022-11-24T05:28:10.141Z,100079.98
2022-11-24T05:30:40.253Z,100080.34
2022-11-24T05:33:12.357Z,100084.88
2022-11-24T05:35:40.576Z,100084.66
2022-11-24T05:38:08.776Z,100084.29
2022-11-24T05:40:37.996Z,100090.16
2022-11-24T05:43:10.228Z,100086.90
2022-11-24T05:45:38.183Z,100086.25
2022-11-24T05:48:08.810Z,100089.21
2022-11-24T05:50:36.916Z,100090.92
2022-11-24T05:53:06.576Z,100090.42
2022-11-24T05:55:35.343Z,100092.06
2022-11-24T05:58:06.368Z,100095.03
2022-11-24T06:00:35.457Z,100095.02
2022-11-24T06:03:03.996Z,100096.06
2022-11-24T06:05:32.167Z,100097.58
2022-11-24T06:08:00.967Z,100099.09
2022-11-24T06:10:29.074Z,100103.58
2022-11-24T06:12:57.357Z,100104.48
2022-11-24T06:15:25.293Z,100102.46
2022-11-24T06:17:56.482Z,100101.24
2022-11-24T06:20:31.209Z,100104.90
2022-11-24T06:23:01.868Z,100110.23
2022-11-24T06:25:30.236Z,100115.32
2022-11-24T06:27:58.255Z,100114.52
2022-11-24T06:30:27.021Z,100115.56
2022-11-24T06:32:55.623Z,100115.10
2022-11-24T06:35:23.595Z,100113.36
2022-11-24T06:37:51.980Z,100120.23
2022-11-24T06:40:20.079Z,100116.94
2022-11-24T06:42:52.508Z,100118.85
2022-11-24T06:45:20.600Z,100121.52
2022-11-24T06:47:48.827Z,100119.21
2022-11-24T06:50:17.369Z,100118.48
2022-11-24T06:52:45.572Z,100117.16
2022-11-24T06:55:13.850Z,100117.35
2022-11-24T06:57:42.207Z,100120.66
2022-11-24T07:00:11.366Z,100126.92
2022-11-24T07:02:45.512Z,100124.80
2022-11-24T07:05:15.251Z,100128.48
2022-11-24T07:07:51.045Z,100124.89
2022-11-24T07:10:19.597Z,100127.33
2022-11-24T07:12:47.862Z,100132.35
2022-11-24T07:15:15.790Z,100130.90
2022-11-24T07:17:43.934Z,100132.66
2022-11-24T07:20:13.918Z,100130.59
2022-11-24T07:22:41.967Z,100131.77
2022-11-24T07:25:11.200Z,100133.74
2022-11-24T07:27:39.664Z,100135.64
2022-11-24T07:30:10.170Z,100140.10
2022-11-24T07:32:38.388Z,100142.66
2022-11-24T07:35:06.785Z,100124.70
2022-11-24T07:37:34.705Z,100147.31
2022-11-24T07:40:02.848Z,100149.03
2022-11-24T07:42:30.689Z,100146.70
2022-11-24T07:44:58.523Z,100150.46
2022-11-24T07:47:29.406Z,100149.98
2022-11-24T07:49:57.238Z,100152.09
2022-11-24T07:52:26.824Z,100148.77
2022-11-24T07:54:54.924Z,100130.91
2022-11-24T07:57:23.761Z,100143.65
2022-11-24T07:59:51.611Z,100143.78
2022-11-24T08:02:19.916Z,100145.25
2022-11-24T08:04:47.735Z,100146.41
2022-11-24T08:07:15.907Z,100146.66
2022-11-24T08:09:43.904Z,100155.51
2022-11-24T08:12:11.885Z,100158.13
2022-11-24T08:14:39.789Z,100155.92
2022-11-24T08:17:08.667Z,100162.23
2022-11-24T08:19:37.157Z,100165.96
2022-11-24T08:22:05.236Z,100169.35
2022-11-24T08:24:33.690Z,100166.45
2022-11-24T08:27:01.740Z,100165.77
2022-11-24T08:29:30.506Z,100168.39
2022-11-24T08:31:58.648Z,100169.58
2022-11-24T08:34:29.392Z,100166.38
2022-11-24T08:36:57.218Z,100167.56
2022-11-24T08:39:25.294Z,100170.57
2022-11-24T08:41:53.142Z,100166.44
2022-11-24T08:44:21.091Z,100173.29
2022-11-24T08:46:50.204Z,100173.31
2022-11-24T08:49:19.039Z,100183.58
2022-11-24T08:51:48.650Z,100177.85
2022-11-24T08:54:20.891Z,100174.17
2022-11-24T08:56:55.755Z,100172.73
2022-11-24T08:59:25.191Z,100174.61
2022-11-24T09:01:53.170Z,100174.23
2022-11-24T09:04:21.093Z,100170.52
2022-11-24T09:06:49.684Z,100173.68
2022-11-24T09:09:18.368Z,100175.55
2022-11-24T09:11:47.075Z,100179.10
2022-11-24T09:14:15.385Z,100176.44
2022-11-24T09:16:43.241Z,100150.36
2022-11-24T09:19:11.089Z,100169.48
2022-11-24T09:21:39.215Z,100186.13
2022-11-24T09:24:08.197Z,100188.98
2022-11-24T09:26:44.596Z,100183.88
2022-11-24T09:29:16.308Z,100169.09
2022-11-24T09:31:48.469Z,100183.52
2022-11-24T09:34:17.254Z,100193.84
2022-11-24T09:36:45.133Z,100198.52
2022-11-24T09:39:13.015Z,100206.45
2022-11-24T09:42:06.755Z,100202.48
2022-11-24T09:44:58.626Z,100201.90
2022-11-24T09:47:49.842Z,100204.10
2022-11-24T09:50:31.959Z,100209.80
2022-11-24T09:53:06.287Z,100211.68
2022-11-24T09:55:38.168Z,100211.75
2022-11-24T09:58:21.487Z,100209.98
2022-11-24T10:00:53.346Z,100211.98
2022-11-24T10:03:43.728Z,100216.55
2022-11-24T10:06:39.184Z,100213.70
2022-11-24T10:09:13.440Z,100214.03
2022-11-24T10:12:03.419Z,100215.00
2022-11-24T10:14:53.045Z,100217.05
2022-11-24T10:17:42.868Z,100213.87
2022-11-24T10:20:28.548Z,100213.73
2022-11-24T10:23:03.033Z,100214.67
2022-11-24T10:25:50.716Z,100212.73
2022-11-24T10:28:19.392Z,100212.71
2022-11-24T10:30:47.313Z,100212.81
2022-11-24T10:33:19.712Z,100195.52
2022-11-24T10:35:53.382Z,100204.45
2022-11-24T10:38:21.981Z,100207.68
2022-11-24T10:41:07.558Z,100205.46
2022-11-24T10:43:42.689Z,100206.79
2022-11-24T10:46:24.760Z,100205.29
2022-11-24T10:49:04.041Z,100202.96
2022-11-24T10:52:05.833Z,100203.71
2022-11-24T10:54:36.135Z,100206.50
2022-11-24T10:57:04.226Z,100209.58
2022-11-24T10:59:38.505Z,100212.60
2022-11-24T11:02:34.524Z,100211.39
2022-11-24T11:05:42.576Z,100204.52
2022-11-24T11:08:19.259Z,100204.80
2022-11-24T11:11:11.214Z,100204.05
2022-11-24T11:13:51.962Z,100205.20
2022-11-24T11:16:27.796Z,100206.54
2022-11-24T11:18:56.288Z,100208.59
2022-11-24T11:21:39.653Z,100206.85
2022-11-24T11:24:18.550Z,100208.45
2022-11-24T11:26:46.878Z,100210.96
2022-11-24T11:35:16.575Z,100215.04
2022-11-24T11:37:45.890Z,100198.87
2022-11-24T11:40:20.585Z,100205.42
2022-11-24T11:43:08.061Z,100210.84
2022-11-24T11:45:38.299Z,100230.34
2022-11-24T11:48:12.817Z,100231.55
2022-11-24T11:51:21.237Z,100235.05
2022-11-24T11:53:47.600Z,100233.30
2022-11-24T11:56:21.974Z,100236.88
2022-11-24T11:59:21.644Z,100238.66
2022-11-24T12:02:08.295Z,100226.59
2022-11-24T12:04:53.097Z,100238.52
2022-11-24T12:08:13.401Z,100236.73
2022-11-24T12:10:54.126Z,100233.82
2022-11-24T12:13:44.406Z,100230.66
2022-11-24T12:16:42.104Z,100226.42
2022-11-24T12:19:32.236Z,100227.48
2022-11-24T12:22:06.273Z,100219.17
2022-11-24T12:25:23.032Z,100218.84
2022-11-24T12:28:18.053Z,100220.66
2022-11-24T12:31:04.189Z,100220.86
2022-11-24T12:33:59.555Z,100221.05
2022-11-24T12:36:49.480Z,100218.66
2022-11-24T12:39:47.360Z,100224.73
2022-11-24T12:42:35.913Z,100223.44
2022-11-24T12:45:13.214Z,100220.27
2022-11-24T12:48:01.203Z,100206.72
2022-11-24T12:50:40.194Z,100222.66
2022-11-24T12:53:29.243Z,100220.06
2022-11-24T12:56:21.326Z,100225.01
2022-11-24T12:59:06.336Z,100230.78
2022-11-24T13:01:41.842Z,100228.27
2022-11-24T13:04:33.105Z,100230.14
2022-11-24T13:07:10.930Z,100226.60
2022-11-24T13:10:17.387Z,100215.36
2022-11-24T13:13:05.263Z,100229.30
2022-11-24T13:16:07.120Z,100217.37
2022-11-24T13:18:57.179Z,100228.19
2022-11-24T13:21:31.227Z,100229.86
2022-11-24T13:24:01.525Z,100230.68
2022-11-24T13:26:41.484Z,100230.14
2022-11-24T13:29:28.991Z,100233.35
2022-11-24T13:32:03.339Z,100231.27
2022-11-24T13:34:55.311Z,100232.05
2022-11-24T13:37:26.569Z,100232.98
2022-11-24T13:40:14.366Z,100230.18
2022-11-24T13:42:57.800Z,100234.55
2022-11-24T13:45:45.340Z,100234.23
2022-11-24T13:48:29.456Z,100233.51
2022-11-24T13:50:57.958Z,100235.16
2022-11-24T13:53:38.477Z,100233.60
2022-11-24T13:56:12.900Z,100237.61
2022-11-24T13:58:44.287Z,100241.48
2022-11-24T14:01:43.867Z,100242.35
2022-11-24T14:04:30.631Z,100241.97
2022-11-24T14:07:09.827Z,100240.52
2022-11-24T14:09:51.328Z,100235.64
2022-11-24T14:12:25.313Z,100236.89
2022-11-24T14:14:57.728Z,100239.13
2022-11-24T14:17:28.858Z,100246.58
2022-11-24T14:19:58.250Z,100248.62
2022-11-24T14:22:34.324Z,100257.23
2022-11-24T14:25:03.664Z,100259.70
2022-11-24T14:27:38.773Z,100259.20
2022-11-24T14:30:10.057Z,100261.89
2022-11-24T14:32:38.379Z,100266.81
2022-11-24T14:35:43.861Z,100269.08
2022-11-24T14:38:14.798Z,100276.45
2022-11-24T14:40:48.991Z,100277.81
2022-11-24T14:43:26.033Z,100278.41
2022-11-24T14:46:10.366Z,100276.86
2022-11-24T14:48:58.919Z,100278.89
2022-11-24T14:51:34.629Z,100267.22
2022-11-24T14:54:14.226Z,100282.11
2022-11-24T14:56:55.858Z,100287.32
2022-11-24T14:59:27.105Z,100288.66
2022-11-24T15:01:55.394Z,100288.52
2022-11-24T15:07:29.252Z,100288.67
2022-11-24T15:10:02.874Z,100290.53
2022-11-24T15:12:36.071Z,100295.23
2022-11-24T15:15:05.669Z,100299.14
2022-11-24T15:17:34.433Z,100303.27
2022-11-24T15:20:10.832Z,100299.08
2022-11-24T15:22:41.677Z,100303.63
2022-11-24T15:25:28.790Z,100305.02
2022-11-24T15:27:56.880Z,100305.05
2022-11-24T15:30:27.669Z,100296.65
2022-11-24T15:32:57.756Z,100313.53
2022-11-24T15:35:30.584Z,100319.16
2022-11-24T15:37:59.059Z,100325.91
2022-11-24T15:40:27.755Z,100330.98
2022-11-24T15:42:59.612Z,100325.57
2022-11-24T15:45:34.171Z,100327.27
2022-11-24T15:48:02.133Z,100328.77
2022-11-24T15:50:30.104Z,100329.48
2022-11-24T15:52:58.355Z,100331.07
2022-11-24T15:55:26.310Z,100331.17
2022-11-24T15:57:54.399Z,100328.05
2022-11-24T16:00:24.082Z,100328.00
2022-11-24T16:02:52.073Z,100327.90
2022-11-24T16:05:20.469Z,100331.70
2022-11-24T16:07:48.671Z,100330.25
2022-11-24T16:10:26.029Z,100331.50
2022-11-24T16:12:54.258Z,100333.13
2022-11-24T16:15:22.118Z,100337.79
2022-11-24T16:17:51.376Z,100345.17
2022-11-24T16:20:19.702Z,100346.95
2022-11-24T16:22:47.658Z,100354.65
2022-11-24T16:25:16.000Z,100342.50
2022-11-24T16:27:44.177Z,100359.67
2022-11-24T16:30:13.364Z,100368.42
2022-11-24T16:32:43.578Z,100368.08
2022-11-24T16:35:12.027Z,100366.76
2022-11-24T16:37:40.062Z,100367.23
2022-11-24T16:40:08.651Z,100369.53
2022-11-24T16:42:36.666Z,100370.52
2022-11-24T16:45:04.854Z,100372.21
2022-11-24T16:47:32.764Z,100375.52
2022-11-24T16:50:01.364Z,100357.83
2022-11-24T16:52:29.513Z,100374.46
2022-11-24T16:54:57.749Z,100374.49
2022-11-24T16:57:25.852Z,100380.30
2022-11-24T16:59:57.378Z,100380.14
2022-11-24T17:02:25.972Z,100380.42
2022-11-24T17:05:00.147Z,100378.80
2022-11-24T17:07:28.179Z,100378.11
2022-11-24T17:09:56.083Z,100383.39
2022-11-24T17:12:24.374Z,100384.50
2022-11-24T17:15:09.735Z,100391.75
2022-11-24T17:18:01.266Z,100398.41
2022-11-24T17:20:28.534Z,100401.02
2022-11-24T17:22:57.526Z,100404.27
2022-11-24T17:25:25.850Z,100401.98
2022-11-24T17:27:54.458Z,100401.08
2022-11-24T17:30:22.965Z,100402.72
2022-11-24T17:32:56.909Z,100409.98
2022-11-24T17:35:25.412Z,100409.22
2022-11-24T17:37:53.325Z,100413.06
2022-11-24T17:40:28.487Z,100412.97
2022-11-24T17:42:59.873Z,100414.04
2022-11-24T17:45:29.048Z,100420.20
2022-11-24T17:48:00.847Z,100424.27
2022-11-24T17:50:28.745Z,100423.52
2022-11-24T17:52:56.850Z,100427.98
2022-11-24T17:55:25.004Z,100427.89
2022-11-24T17:57:53.079Z,100432.50
2022-11-24T18:00:21.321Z,100433.77
2022-11-24T18:02:49.726Z,100435.77
2022-11-24T18:05:17.941Z,100435.61
2022-11-24T18:07:45.928Z,100437.48
2022-11-24T18:10:14.541Z,100438.40
2022-11-24T18:12:42.525Z,100439.72
2022-11-24T18:15:10.830Z,100448.30
2022-11-24T18:17:39.935Z,100451.92
2022-11-24T18:20:08.798Z,100451.95
2022-11-24T18:23:04.549Z,100456.86
2022-11-24T18:25:28.365Z,100452.39
2022-11-24T18:27:56.524Z,100455.61
2022-11-24T18:30:24.886Z,100454.49
2022-11-24T18:32:53.318Z,100456.51
2022-11-24T18:35:22.912Z,100454.50
2022-11-24T18:37:51.774Z,100454.58
2022-11-24T18:40:20.036Z,100457.27
2022-11-24T18:42:51.594Z,100448.67
2022-11-24T18:45:19.471Z,100454.17
2022-11-24T18:47:47.703Z,100447.52
2022-11-24T18:50:17.413Z,100453.48
2022-11-24T18:52:45.817Z,100450.32
2022-11-24T18:55:14.116Z,100446.71
2022-11-24T18:57:42.253Z,100448.36
2022-11-24T19:00:12.913Z,100443.33
2022-11-24T19:02:41.398Z,100446.75
2022-11-24T19:05:09.574Z,100449.80
2022-11-24T19:07:38.973Z,100451.67
2022-11-24T19:10:08.154Z,100452.91
2022-11-24T19:12:36.624Z,100456.42
2022-11-24T19:15:04.894Z,100457.45
2022-11-24T19:17:32.947Z,100464.95
2022-11-24T19:20:00.973Z,100467.23
2022-11-24T19:22:28.964Z,100469.23
2022-11-24T19:24:57.169Z,100469.29
2022-11-24T19:27:25.644Z,100467.67
2022-11-24T19:29:55.042Z,100468.80
2022-11-24T19:32:23.291Z,100473.34
2022-11-24T19:34:51.619Z,100471.66
2022-11-24T19:37:19.481Z,100468.27
2022-11-24T19:39:48.004Z,100474.35
2022-11-24T19:42:16.562Z,100470.75
2022-11-24T19:44:44.565Z,100469.77
2022-11-24T19:47:16.129Z,100475.42
2022-11-24T19:49:46.020Z,100477.96
2022-11-24T19:52:14.113Z,100477.04
2022-11-24T19:54:42.332Z,100474.73
2022-11-24T19:57:11.174Z,100477.14
2022-11-24T19:59:39.158Z,100477.96
2022-11-24T20:02:07.291Z,100473.13
2022-11-24T20:04:38.517Z,100460.66
2022-11-24T20:07:08.139Z,100472.88
2022-11-24T20:09:36.258Z,100476.40
2022-11-24T20:12:04.568Z,100479.05
2022-11-24T20:14:32.946Z,100480.77
2022-11-24T20:17:01.426Z,100485.52
2022-11-24T20:19:32.751Z,100485.55
2022-11-24T20:22:04.366Z,100485.19
2022-11-24T20:24:32.927Z,100490.86
2022-11-24T20:27:01.375Z,100490.22
2022-11-24T20:29:29.304Z,100490.80
2022-11-24T20:31:57.588Z,100489.67
2022-11-24T20:34:27.165Z,100492.10
2022-11-24T20:36:55.453Z,100493.79
2022-11-24T20:39:27.976Z,100491.58
2022-11-24T20:41:56.518Z,100494.21
2022-11-24T20:44:26.977Z,100495.98
2022-11-24T20:46:57.511Z,100497.88
2022-11-24T20:49:26.635Z,100500.30
2022-11-24T20:51:56.958Z,100504.45
2022-11-24T20:54:26.461Z,100509.86
2022-11-24T20:56:54.594Z,100515.58
2022-11-24T20:59:24.647Z,100521.00
2022-11-24T21:01:55.898Z,100520.86
2022-11-24T21:04:26.771Z,100525.08
2022-11-24T21:06:55.615Z,100525.10
2022-11-24T21:09:27.316Z,100526.73
2022-11-24T21:11:55.327Z,100533.30
2022-11-24T21:14:24.511Z,100531.49
2022-11-24T21:16:52.670Z,100532.56
2022-11-24T21:19:21.381Z,100533.13
2022-11-24T21:21:50.141Z,100529.70
2022-11-24T21:24:22.128Z,100535.09
2022-11-24T21:26:53.001Z,100538.70
2022-11-24T21:29:25.581Z,100543.46
2022-11-24T21:31:53.857Z,100547.14
2022-11-24T21:34:21.847Z,100548.50
2022-11-24T21:36:49.992Z,100549.09
2022-11-24T21:39:18.757Z,100551.08
2022-11-24T21:41:47.805Z,100555.64
2022-11-24T21:44:16.038Z,100556.09
2022-11-24T21:46:51.039Z,100557.73
2022-11-24T21:49:23.959Z,100560.31
2022-11-24T21:51:55.817Z,100561.77
2022-11-24T21:54:24.782Z,100564.63
2022-11-24T21:56:54.457Z,100558.21
2022-11-24T21:59:22.688Z,100563.28
2022-11-24T22:01:51.122Z,100564.71
2022-11-24T22:04:19.033Z,100566.81
2022-11-24T22:06:46.945Z,100567.61
2022-11-24T22:09:18.168Z,100569.86
2022-11-24T22:11:49.722Z,100569.64
2022-11-24T22:14:18.259Z,100570.21
2022-11-24T22:16:46.721Z,100566.50
2022-11-24T22:19:14.694Z,100567.86
2022-11-24T22:21:42.740Z,100567.45
2022-11-24T22:24:11.309Z,100566.13
2022-11-24T22:26:39.214Z,100567.45
2022-11-24T22:29:08.381Z,100566.39
2022-11-24T22:31:36.292Z,100568.08
2022-11-24T22:34:04.920Z,100565.07
2022-11-24T22:36:32.894Z,100565.46
2022-11-24T22:39:04.195Z,100569.48
2022-11-24T22:41:34.638Z,100568.55
2022-11-24T22:44:02.765Z,100574.45
2022-11-24T22:46:32.378Z,100577.77
2022-11-24T22:49:02.005Z,100584.48
2022-11-24T22:51:34.778Z,100582.49
2022-11-24T22:54:04.687Z,100584.30
2022-11-24T22:56:33.732Z,100585.70
2022-11-24T22:59:02.368Z,100587.52
2022-11-24T23:01:31.594Z,100586.17
2022-11-24T23:03:59.553Z,100582.08
2022-11-24T23:06:29.539Z,100582.30
2022-11-24T23:08:59.641Z,100586.38
2022-11-24T23:11:37.761Z,100586.42
2022-11-24T23:14:14.534Z,100584.31
2022-11-24T23:16:43.141Z,100587.13
2022-11-24T23:19:11.441Z,100592.95
2022-11-24T23:21:39.821Z,100591.58
2022-11-24T23:24:08.714Z,100589.47
2022-11-24T23:26:41.333Z,100588.45
2022-11-24T23:29:10.789Z,100585.44
2022-11-24T23:31:41.902Z,100586.73
2022-11-24T23:34:10.370Z,100584.35
2022-11-24T23:36:43.538Z,100585.59
2022-11-24T23:39:13.647Z,100583.87
2022-11-24T23:41:41.857Z,100583.59
2022-11-24T23:44:09.715Z,100585.50
2022-11-24T23:46:38.092Z,100565.64
2022-11-24T23:49:06.505Z,100566.21
2022-11-24T23:51:35.099Z,100579.92
2022-11-24T23:54:08.078Z,100581.95
2022-11-24T23:56:36.830Z,100579.43
2022-11-24T23:59:05.379Z,100584.56
